Time;durP1;ratioP1;P1;durP2;ratioP2;P2;SDS_P1;SDS_P2;PMS_P1;PMS_P2;Temp;Humidity;BMP_temperature;BMP_pressure;BME280_temperature;BME280_humidity;BME280_pressure;Samples;Min_cycle;Max_cycle;Signal;HPM_P1;HPM_P2
2023/04/27 00:00:46;;;;;;;;;;;231.30;2073.60;;;;;;5056183;28;19916;-73
2023/04/27 00:03:12;;;;;;;;;;;231.30;2073.60;;;;;;5056096;28;19905;-73
2023/04/27 00:05:37;;;;;;;;;;;231.30;2099.20;;;;;;5055917;28;19996;-72
2023/04/27 00:08:06;;;;;;;;;;;231.20;2124.80;;;;;;5056152;28;19912;-72
2023/04/27 00:10:32;;;;;;;;;;;231.20;2124.80;;;;;;5054437;28;19991;-71
2023/04/27 00:12:57;;;;;;;;;;;231.20;2124.80;;;;;;5056662;28;19999;-72
2023/04/27 00:15:23;;;;;;;;;;;231.10;2176.00;;;;;;5056897;28;20337;-72
2023/04/27 00:17:49;;;;;;;;;;;231.10;2150.40;;;;;;5052149;28;19905;-72
2023/04/27 00:20:14;;;;;;;;;;;231.10;2150.40;;;;;;5056761;28;19934;-73
2023/04/27 00:22:40;;;;;;;;;;;231.00;2150.40;;;;;;5056616;28;19905;-72
2023/04/27 00:25:06;;;;;;;;;;;231.00;2201.60;;;;;;5056554;28;20250;-74
2023/04/27 00:27:31;;;;;;;;;;;230.90;2176.00;;;;;;5056598;28;19915;-72
2023/04/27 00:29:57;;;;;;;;;;;230.90;2201.60;;;;;;5056550;28;19912;-72
2023/04/27 00:32:22;;;;;;;;;;;230.90;2227.20;;;;;;5056599;28;20336;-71
2023/04/27 00:34:48;;;;;;;;;;;230.90;2201.60;;;;;;5056772;28;19904;-72
2023/04/27 00:37:14;;;;;;;;;;;230.90;2176.00;;;;;;5056506;28;19948;-72
2023/04/27 00:39:39;;;;;;;;;;;231.00;2150.40;;;;;;5055701;28;19916;-72
2023/04/27 00:42:10;;;;;;;;;;;231.00;2150.40;;;;;;5039528;28;20346;-72
2023/04/27 00:44:36;;;;;;;;;;;230.90;2150.40;;;;;;5038177;28;20342;-72
2023/04/27 00:47:01;;;;;;;;;;;230.70;2201.60;;;;;;5035440;28;20004;-72
2023/04/27 00:49:27;;;;;;;;;;;230.60;2252.80;;;;;;5035351;28;19916;-72
2023/04/27 00:51:53;;;;;;;;;;;230.50;2252.80;;;;;;5037791;28;19905;-72
2023/04/27 00:54:20;;;;;;;;;;;230.50;2252.80;;;;;;5037892;28;19912;-72
2023/04/27 00:56:51;;;;;;;;;;;230.50;2252.80;;;;;;5034887;28;19909;-76
2023/04/27 00:59:17;;;;;;;;;;;230.60;2252.80;;;;;;5043424;28;20180;-73
2023/04/27 01:01:43;;;;;;;;;;;230.70;2227.20;;;;;;5035062;28;19905;-72
2023/04/27 01:04:09;;;;;;;;;;;230.70;2227.20;;;;;;5035127;28;20357;-73
2023/04/27 01:06:34;;;;;;;;;;;230.70;2227.20;;;;;;5038253;28;19905;-72
2023/04/27 01:09:00;;;;;;;;;;;230.60;2252.80;;;;;;5041487;28;20301;-77
2023/04/27 01:11:26;;;;;;;;;;;230.50;2252.80;;;;;;5039004;28;20343;-72
2023/04/27 01:13:52;;;;;;;;;;;230.50;2252.80;;;;;;5037541;28;20269;-72
2023/04/27 01:16:18;;;;;;;;;;;230.40;2252.80;;;;;;5042777;28;19912;-72
2023/04/27 01:18:44;;;;;;;;;;;230.40;2252.80;;;;;;5040366;28;19935;-72
2023/04/27 01:21:10;;;;;;;;;;;230.40;2252.80;;;;;;5040288;28;19909;-73
2023/04/27 01:23:35;;;;;;;;;;;230.40;2252.80;;;;;;5037336;28;19950;-72
2023/04/27 01:26:01;;;;;;;;;;;205.70;2252.80;;;;;;5037487;28;20373;-72
2023/04/27 01:28:26;;;;;;;;;;;205.70;2252.80;;;;;;5037209;28;19909;-72
2023/04/27 01:30:52;;;;;;;;;;;205.70;2252.80;;;;;;5042775;28;20067;-74
2023/04/27 01:33:17;;;;;;;;;;;205.70;2252.80;;;;;;5037328;28;19916;-74
2023/04/27 01:35:43;;;;;;;;;;;205.70;2252.80;;;;;;5045716;28;19911;-73
2023/04/27 01:38:09;;;;;;;;;;;205.70;2252.80;;;;;;5039645;28;19913;-73
2023/04/27 01:40:34;;;;;;;;;;;205.70;2252.80;;;;;;5034627;28;19988;-73
2023/04/27 01:43:00;;;;;;;;;;;205.40;2252.80;;;;;;5036197;28;19999;-71
2023/04/27 01:45:25;;;;;;;;;;;205.50;2252.80;;;;;;5047194;28;19904;-72
2023/04/27 01:47:51;;;;;;;;;;;205.50;2252.80;;;;;;5040016;28;19976;-72
2023/04/27 01:50:17;;;;;;;;;;;205.60;2252.80;;;;;;5039986;28;19904;-73
2023/04/27 01:52:42;;;;;;;;;;;205.50;2252.80;;;;;;5038482;28;19905;-72
2023/04/27 01:55:08;;;;;;;;;;;205.50;2252.80;;;;;;5035711;28;19944;-72
2023/04/27 01:57:34;;;;;;;;;;;205.40;2252.80;;;;;;5036379;28;19944;-72
2023/04/27 02:00:00;;;;;;;;;;;205.40;2252.80;;;;;;5041835;28;19917;-74
2023/04/27 02:02:25;;;;;;;;;;;205.50;2252.80;;;;;;5040627;28;20387;-73
2023/04/27 02:04:51;;;;;;;;;;;205.40;2252.80;;;;;;5042118;28;20285;-76
2023/04/27 02:07:16;;;;;;;;;;;205.30;2252.80;;;;;;5036077;28;19940;-73
2023/04/27 02:09:42;;;;;;;;;;;205.30;2252.80;;;;;;5033235;28;19905;-73
2023/04/27 02:12:07;;;;;;;;;;;205.20;2252.80;;;;;;5038775;28;19909;-73
2023/04/27 02:14:33;;;;;;;;;;;205.20;2252.80;;;;;;5033151;28;20479;-72
2023/04/27 02:16:59;;;;;;;;;;;205.30;2252.80;;;;;;5035565;28;19916;-73
2023/04/27 02:19:24;;;;;;;;;;;205.40;2252.80;;;;;;5032375;28;19912;-72
2023/04/27 02:21:51;;;;;;;;;;;205.40;2252.80;;;;;;5038773;28;19905;-72
2023/04/27 02:24:17;;;;;;;;;;;205.40;2252.80;;;;;;5038384;28;20412;-72
2023/04/27 02:26:42;;;;;;;;;;;205.40;2252.80;;;;;;5035540;28;19909;-73
2023/04/27 02:29:08;;;;;;;;;;;205.40;2252.80;;;;;;5041296;28;20246;-72
2023/04/27 02:31:33;;;;;;;;;;;205.20;2252.80;;;;;;5035261;28;19905;-73
2023/04/27 02:33:59;;;;;;;;;;;205.10;2252.80;;;;;;5033014;28;19963;-72
2023/04/27 02:36:25;;;;;;;;;;;205.10;2252.80;;;;;;5038363;28;19912;-73
2023/04/27 02:38:50;;;;;;;;;;;205.10;2252.80;;;;;;5043716;28;19920;-72
2023/04/27 02:41:16;;;;;;;;;;;205.10;2252.80;;;;;;5038397;28;20324;-72
2023/04/27 02:43:41;;;;;;;;;;;205.10;2252.80;;;;;;5036467;28;20350;-72
2023/04/27 02:46:07;;;;;;;;;;;205.10;2252.80;;;;;;5038334;28;20270;-73
2023/04/27 02:48:32;;;;;;;;;;;205.10;2252.80;;;;;;5037581;28;20300;-73
2023/04/27 02:50:58;;;;;;;;;;;205.10;2252.80;;;;;;5033186;28;19905;-72
2023/04/27 02:53:24;;;;;;;;;;;205.00;2252.80;;;;;;5044779;28;19909;-73
2023/04/27 02:55:49;;;;;;;;;;;205.10;2252.80;;;;;;5042641;28;19905;-73
2023/04/27 02:58:15;;;;;;;;;;;205.10;2252.80;;;;;;5032123;28;20007;-72
2023/04/27 03:00:41;;;;;;;;;;;205.10;2252.80;;;;;;5037886;28;19909;-73
2023/04/27 03:03:07;;;;;;;;;;;205.10;2252.80;;;;;;5032451;28;19905;-72
2023/04/27 03:05:32;;;;;;;;;;;205.10;2252.80;;;;;;5035400;28;19912;-72
2023/04/27 03:07:58;;;;;;;;;;;205.10;2252.80;;;;;;5038031;28;20002;-73
2023/04/27 03:10:24;;;;;;;;;;;205.00;2252.80;;;;;;5033312;28;19912;-72
2023/04/27 03:12:49;;;;;;;;;;;205.10;2252.80;;;;;;5037100;28;19958;-78
2023/04/27 03:15:15;;;;;;;;;;;205.10;2252.80;;;;;;5037870;28;19905;-72
2023/04/27 03:17:40;;;;;;;;;;;205.10;2252.80;;;;;;5033007;28;20323;-73
2023/04/27 03:20:09;;;;;;;;;;;205.10;2252.80;;;;;;5038343;28;20241;-72
2023/04/27 03:22:35;;;;;;;;;;;205.20;2252.80;;;;;;5035228;28;19905;-72
2023/04/27 03:25:01;;;;;;;;;;;205.20;2252.80;;;;;;5032324;28;19912;-72
2023/04/27 03:27:27;;;;;;;;;;;205.20;2252.80;;;;;;5034672;28;20349;-72
2023/04/27 03:29:52;;;;;;;;;;;205.20;2252.80;;;;;;5032101;28;19909;-73
2023/04/27 03:32:18;;;;;;;;;;;205.30;2252.80;;;;;;5038627;28;19958;-72
2023/04/27 03:34:44;;;;;;;;;;;205.20;2252.80;;;;;;5039064;28;19958;-74
2023/04/27 03:37:09;;;;;;;;;;;205.20;2252.80;;;;;;5038921;28;19905;-76
2023/04/27 03:39:35;;;;;;;;;;;205.20;2252.80;;;;;;5036037;28;19999;-72
2023/04/27 03:42:01;;;;;;;;;;;205.20;2252.80;;;;;;5040813;28;19913;-72
2023/04/27 03:44:27;;;;;;;;;;;205.10;2252.80;;;;;;5038753;28;19905;-72
2023/04/27 03:46:52;;;;;;;;;;;205.10;2252.80;;;;;;5038832;28;20373;-72
2023/04/27 03:49:18;;;;;;;;;;;205.00;2252.80;;;;;;5035857;28;20293;-73
2023/04/27 03:51:43;;;;;;;;;;;205.10;2252.80;;;;;;5044487;28;19943;-73
2023/04/27 03:54:09;;;;;;;;;;;204.80;2252.80;;;;;;5049381;28;19909;-72
2023/04/27 03:56:35;;;;;;;;;;;204.90;2252.80;;;;;;5037281;28;19909;-73
2023/04/27 03:59:02;;;;;;;;;;;180.00;2252.80;;;;;;5036443;28;20342;-73
2023/04/27 04:01:28;;;;;;;;;;;180.10;2252.80;;;;;;5038381;28;19963;-72
2023/04/27 04:03:53;;;;;;;;;;;180.10;2252.80;;;;;;5035583;28;19909;-73
2023/04/27 04:06:19;;;;;;;;;;;204.90;2252.80;;;;;;5056088;28;19905;-72
2023/04/27 04:08:45;;;;;;;;;;;205.10;2252.80;;;;;;5041327;28;19904;-72
2023/04/27 04:11:10;;;;;;;;;;;204.80;2252.80;;;;;;5038283;28;20322;-72
2023/04/27 04:13:36;;;;;;;;;;;180.10;2252.80;;;;;;5043638;28;20327;-72
2023/04/27 04:16:05;;;;;;;;;;;204.80;2252.80;;;;;;5040664;28;19928;-72
2023/04/27 04:18:31;;;;;;;;;;;204.80;2252.80;;;;;;5037891;28;19922;-72
2023/04/27 04:20:56;;;;;;;;;;;180.00;2252.80;;;;;;5039975;28;19905;-72
2023/04/27 04:23:22;;;;;;;;;;;180.00;2252.80;;;;;;5042398;28;19913;-72
2023/04/27 04:25:48;;;;;;;;;;;180.10;2252.80;;;;;;5055144;28;19909;-71
2023/04/27 04:28:14;;;;;;;;;;;180.10;2252.80;;;;;;5055505;28;19915;-72
2023/04/27 04:30:40;;;;;;;;;;;204.80;2252.80;;;;;;5055669;28;19915;-72
2023/04/27 04:33:05;;;;;;;;;;;180.10;2252.80;;;;;;5055376;28;19905;-73
2023/04/27 04:35:33;;;;;;;;;;;204.80;2252.80;;;;;;5056119;28;20341;-72
2023/04/27 04:37:59;;;;;;;;;;;204.90;2252.80;;;;;;5055465;28;19962;-72
2023/04/27 04:40:25;;;;;;;;;;;204.80;2252.80;;;;;;5055429;28;19936;-72
2023/04/27 04:42:51;;;;;;;;;;;205.00;2252.80;;;;;;5066387;28;19958;-72
2023/04/27 04:45:17;;;;;;;;;;;205.20;2252.80;;;;;;5055407;28;19970;-75
2023/04/27 04:47:42;;;;;;;;;;;205.20;2252.80;;;;;;5055813;28;20349;-72
2023/04/27 04:50:09;;;;;;;;;;;205.20;2252.80;;;;;;5055264;28;19991;-72
2023/04/27 04:52:36;;;;;;;;;;;205.20;2252.80;;;;;;5055615;28;20255;-74
2023/04/27 04:55:02;;;;;;;;;;;205.10;2252.80;;;;;;5055301;28;20260;-72
2023/04/27 04:57:28;;;;;;;;;;;205.20;2252.80;;;;;;5055435;28;19921;-73
2023/04/27 04:59:54;;;;;;;;;;;205.10;2252.80;;;;;;5054951;28;20031;-72
2023/04/27 05:02:20;;;;;;;;;;;205.20;2252.80;;;;;;5055102;28;19983;-72
2023/04/27 05:04:45;;;;;;;;;;;205.20;2252.80;;;;;;5054983;28;19958;-72
2023/04/27 05:07:11;;;;;;;;;;;205.20;2252.80;;;;;;5054982;28;19904;-72
2023/04/27 05:09:37;;;;;;;;;;;205.40;2252.80;;;;;;5054920;28;19905;-72
2023/04/27 05:12:03;;;;;;;;;;;205.40;2252.80;;;;;;5054917;28;20379;-72
2023/04/27 05:14:28;;;;;;;;;;;205.50;2252.80;;;;;;5054824;28;19912;-73
2023/04/27 05:16:54;;;;;;;;;;;205.50;2252.80;;;;;;5054673;28;19904;-73
2023/04/27 05:19:19;;;;;;;;;;;205.60;2252.80;;;;;;5054387;28;20014;-78
2023/04/27 05:21:45;;;;;;;;;;;230.40;2252.80;;;;;;5055349;28;20350;-73
2023/04/27 05:24:11;;;;;;;;;;;230.40;2252.80;;;;;;5050029;28;19905;-75
2023/04/27 05:26:37;;;;;;;;;;;230.60;2252.80;;;;;;5052659;28;19909;-75
2023/04/27 05:29:03;;;;;;;;;;;230.70;2252.80;;;;;;5054406;28;19915;-74
2023/04/27 05:31:29;;;;;;;;;;;230.80;2252.80;;;;;;5050196;28;19987;-72
2023/04/27 05:33:54;;;;;;;;;;;230.70;2252.80;;;;;;5054231;28;19909;-77
2023/04/27 05:36:20;;;;;;;;;;;230.70;2252.80;;;;;;5054369;28;19958;-72
2023/04/27 05:38:46;;;;;;;;;;;230.70;2252.80;;;;;;5054343;28;19917;-73
2023/04/27 05:41:11;;;;;;;;;;;230.70;2252.80;;;;;;5054404;28;19905;-72
2023/04/27 05:43:37;;;;;;;;;;;230.80;2252.80;;;;;;5054196;28;20461;-71
2023/04/27 05:46:03;;;;;;;;;;;230.70;2252.80;;;;;;5053573;28;19905;-71
2023/04/27 05:48:29;;;;;;;;;;;230.90;2252.80;;;;;;5053884;28;19911;-72
2023/04/27 05:50:58;;;;;;;;;;;230.90;2252.80;;;;;;5054713;28;19905;-72
2023/04/27 05:53:24;;;;;;;;;;;231.10;2252.80;;;;;;5054572;28;19939;-72
2023/04/27 05:55:50;;;;;;;;;;;231.10;2252.80;;;;;;5053989;28;20234;-71
2023/04/27 05:58:15;;;;;;;;;;;231.30;2252.80;;;;;;5053608;28;20257;-71
2023/04/27 06:00:41;;;;;;;;;;;256.00;2252.80;;;;;;5053819;28;20376;-71
2023/04/27 06:03:06;;;;;;;;;;;256.20;2252.80;;;;;;5053807;28;19911;-72
2023/04/27 06:05:33;;;;;;;;;;;256.20;2252.80;;;;;;5069128;28;19908;-73
2023/04/27 06:07:58;;;;;;;;;;;256.30;2252.80;;;;;;5053420;28;20276;-72
2023/04/27 06:10:24;;;;;;;;;;;256.50;2252.80;;;;;;5053700;28;19911;-71
2023/04/27 06:12:50;;;;;;;;;;;256.70;2252.80;;;;;;5047754;28;19920;-72
2023/04/27 06:15:15;;;;;;;;;;;256.90;2252.80;;;;;;5052789;28;19912;-72
2023/04/27 06:17:42;;;;;;;;;;;281.60;2278.40;;;;;;5052472;28;19936;-72
2023/04/27 06:20:08;;;;;;;;;;;281.70;2278.40;;;;;;5053298;28;20391;-73
2023/04/27 06:22:37;;;;;;;;;;;281.80;2278.40;;;;;;5050463;28;19936;-72
2023/04/27 06:25:03;;;;;;;;;;;282.00;2278.40;;;;;;5053178;28;19905;-78
2023/04/27 06:27:28;;;;;;;;;;;282.10;2278.40;;;;;;5053441;28;19913;-75
2023/04/27 06:29:54;;;;;;;;;;;282.20;2278.40;;;;;;5049496;28;20250;-72
2023/04/27 06:32:19;;;;;;;;;;;282.40;2278.40;;;;;;5067583;28;19928;-73
2023/04/27 06:34:45;;;;;;;;;;;282.50;2278.40;;;;;;5053682;28;19975;-73
2023/04/27 06:37:11;;;;;;;;;;;282.30;2201.60;;;;;;5053252;28;19904;-74
2023/04/27 06:39:36;;;;;;;;;;;307.30;2176.00;;;;;;5053235;28;19968;-72
2023/04/27 06:42:05;;;;;;;;;;;307.40;2252.80;;;;;;5053000;28;19908;-72
2023/04/27 06:44:30;;;;;;;;;;;307.50;2150.40;;;;;;5048076;28;19911;-72
2023/04/27 06:46:56;;;;;;;;;;;307.80;2073.60;;;;;;5053823;28;20007;-71
2023/04/27 06:49:21;;;;;;;;;;;307.80;2048.00;;;;;;5054065;28;19905;-71
2023/04/27 06:51:47;;;;;;;;;;;308.00;2022.40;;;;;;5048075;28;19920;-71
2023/04/27 06:54:13;;;;;;;;;;;332.80;1996.80;;;;;;5052694;28;19974;-72
2023/04/27 06:56:38;;;;;;;;;;;332.90;1945.60;;;;;;5053173;28;19909;-70
2023/04/27 06:59:04;;;;;;;;;;;333.00;1920.00;;;;;;5052690;28;20379;-71
2023/04/27 07:01:29;;;;;;;;;;;333.00;1945.60;;;;;;5052882;28;20275;-70
2023/04/27 07:03:56;;;;;;;;;;;333.20;1971.20;;;;;;5052673;28;19966;-73
2023/04/27 07:06:21;;;;;;;;;;;333.20;1920.00;;;;;;5052355;28;19905;-71
2023/04/27 07:08:47;;;;;;;;;;;333.40;1920.00;;;;;;5052740;28;19958;-73
2023/04/27 07:11:13;;;;;;;;;;;333.50;2022.40;;;;;;5052874;28;19948;-71
2023/04/27 07:13:38;;;;;;;;;;;333.60;1868.80;;;;;;5052744;28;19905;-76
2023/04/27 07:16:04;;;;;;;;;;;333.70;1868.80;;;;;;5052168;28;20423;-71
2023/04/27 07:18:30;;;;;;;;;;;358.40;1843.20;;;;;;5052348;28;20015;-74
2023/04/27 07:20:56;;;;;;;;;;;358.50;1792.00;;;;;;5052775;28;19905;-72
2023/04/27 07:23:22;;;;;;;;;;;358.60;1766.40;;;;;;5043426;28;19905;-72
2023/04/27 07:25:48;;;;;;;;;;;358.80;1766.40;;;;;;5048977;28;19909;-71
2023/04/27 07:28:14;;;;;;;;;;;358.70;1740.80;;;;;;5043513;28;19909;-72
2023/04/27 07:30:40;;;;;;;;;;;358.90;1792.00;;;;;;5052636;28;19909;-71
2023/04/27 07:33:06;;;;;;;;;;;358.90;1740.80;;;;;;5049218;28;19923;-72
2023/04/27 07:35:32;;;;;;;;;;;359.00;1715.20;;;;;;5044233;28;19909;-73
2023/04/27 07:37:59;;;;;;;;;;;359.10;1715.20;;;;;;5052393;28;20435;-72
2023/04/27 07:40:26;;;;;;;;;;;359.10;1740.80;;;;;;5052643;28;19905;-72
2023/04/27 07:42:51;;;;;;;;;;;359.10;1689.60;;;;;;5053074;28;19904;-73
2023/04/27 07:45:17;;;;;;;;;;;359.20;1740.80;;;;;;5052411;28;19905;-71
2023/04/27 07:47:43;;;;;;;;;;;359.30;1689.60;;;;;;5052375;28;20315;-72
2023/04/27 07:50:09;;;;;;;;;;;359.30;1689.60;;;;;;5046536;28;20395;-72
2023/04/27 07:52:34;;;;;;;;;;;384.00;1664.00;;;;;;5052214;28;19947;-70
2023/04/27 07:55:00;;;;;;;;;;;384.00;1612.80;;;;;;5047292;28;20337;-70
2023/04/27 07:57:26;;;;;;;;;;;384.30;1638.40;;;;;;5052223;28;19963;-70
2023/04/27 07:59:52;;;;;;;;;;;384.20;1587.20;;;;;;5052179;28;20291;-70
2023/04/27 08:02:17;;;;;;;;;;;384.30;1587.20;;;;;;5052454;28;19983;-72
2023/04/27 08:04:43;;;;;;;;;;;384.30;1561.60;;;;;;5052138;28;20914;-71
2023/04/27 08:07:08;;;;;;;;;;;384.30;1587.20;;;;;;5051592;28;20340;-70
2023/04/27 08:09:34;;;;;;;;;;;384.40;1561.60;;;;;;5052828;28;19905;-70
2023/04/27 08:12:01;;;;;;;;;;;384.50;1536.00;;;;;;5051895;28;19905;-69
2023/04/27 08:14:27;;;;;;;;;;;384.60;1484.80;;;;;;5051661;28;19916;-68
2023/04/27 08:16:52;;;;;;;;;;;384.70;1510.40;;;;;;5052059;28;19904;-70
2023/04/27 08:19:18;;;;;;;;;;;384.80;1484.80;;;;;;5054991;28;19971;-68
2023/04/27 08:21:44;;;;;;;;;;;384.70;1433.60;;;;;;5056091;28;19915;-68
2023/04/27 08:24:09;;;;;;;;;;;384.60;1408.00;;;;;;5055455;28;19905;-71
2023/04/27 08:26:35;;;;;;;;;;;384.50;1382.40;;;;;;5054355;28;19916;-67
2023/04/27 08:29:01;;;;;;;;;;;384.50;1382.40;;;;;;5055291;28;20000;-70
2023/04/27 08:31:27;;;;;;;;;;;384.60;1356.80;;;;;;5055281;28;19996;-69
2023/04/27 08:33:52;;;;;;;;;;;384.70;1356.80;;;;;;5053549;28;19978;-70
2023/04/27 08:36:23;;;;;;;;;;;384.60;1382.40;;;;;;5053918;28;20328;-69
2023/04/27 08:38:49;;;;;;;;;;;384.60;1382.40;;;;;;5051777;28;20358;-69
2023/04/27 08:41:22;;;;;;;;;;;384.50;1408.00;;;;;;5055319;28;20300;-69
2023/04/27 08:43:52;;;;;;;;;;;384.50;1382.40;;;;;;5054566;28;19966;-71
2023/04/27 08:46:21;;;;;;;;;;;384.60;1382.40;;;;;;5053443;28;19970;-76
2023/04/27 08:48:50;;;;;;;;;;;384.70;1356.80;;;;;;5054390;28;19909;-72
2023/04/27 08:51:16;;;;;;;;;;;384.70;1356.80;;;;;;5054488;28;20395;-74
2023/04/27 08:53:47;;;;;;;;;;;384.60;1382.40;;;;;;5054387;28;20103;-71
2023/04/27 08:56:14;;;;;;;;;;;384.70;1382.40;;;;;;5055913;28;20379;-71
2023/04/27 08:58:40;;;;;;;;;;;384.90;1382.40;;;;;;5054874;28;19927;-73
2023/04/27 09:01:06;;;;;;;;;;;384.80;1382.40;;;;;;5054282;28;19997;-69
2023/04/27 09:03:33;;;;;;;;;;;384.90;1356.80;;;;;;5053620;28;20012;-75
2023/04/27 09:06:02;;;;;;;;;;;409.70;1408.00;;;;;;5067710;28;20324;-71
2023/04/27 09:08:28;;;;;;;;;;;409.70;1433.60;;;;;;5046673;28;19935;-71
2023/04/27 09:10:54;;;;;;;;;;;409.60;1408.00;;;;;;5055077;28;19951;-73
2023/04/27 09:13:20;;;;;;;;;;;409.60;1382.40;;;;;;5053880;28;19936;-73
2023/04/27 09:15:52;;;;;;;;;;;384.70;1356.80;;;;;;5054789;28;19944;-70
2023/04/27 09:18:21;;;;;;;;;;;384.50;1356.80;;;;;;5052326;28;19916;-69
2023/04/27 09:20:50;;;;;;;;;;;384.40;1356.80;;;;;;5054664;28;19944;-71
2023/04/27 09:23:36;;;;;;;;;;;384.40;1356.80;;;;;;5054874;28;19905;-75
2023/04/27 09:26:04;;;;;;;;;;;384.80;1356.80;;;;;;5054664;28;19955;-70
2023/04/27 09:28:31;;;;;;;;;;;409.90;1382.40;;;;;;5053920;28;19912;-71
2023/04/27 09:30:57;;;;;;;;;;;409.70;1331.20;;;;;;5054439;28;19943;-70
2023/04/27 09:33:24;;;;;;;;;;;384.80;1331.20;;;;;;5053214;28;19909;-70
2023/04/27 09:35:49;;;;;;;;;;;384.80;1356.80;;;;;;5053903;28;19904;-71
2023/04/27 09:38:16;;;;;;;;;;;384.70;1382.40;;;;;;5053514;28;19999;-74
2023/04/27 09:40:42;;;;;;;;;;;384.70;1382.40;;;;;;5054365;28;19908;-73
2023/04/27 09:43:08;;;;;;;;;;;384.90;1356.80;;;;;;5053456;28;19916;-74
2023/04/27 09:45:34;;;;;;;;;;;409.70;1382.40;;;;;;5054531;28;19999;-71
2023/04/27 09:47:59;;;;;;;;;;;409.90;1356.80;;;;;;5053934;28;19905;-75
2023/04/27 09:50:25;;;;;;;;;;;410.10;1331.20;;;;;;5053881;28;20272;-73
2023/04/27 09:52:51;;;;;;;;;;;410.00;1331.20;;;;;;5053101;28;20317;-71
2023/04/27 09:55:19;;;;;;;;;;;410.00;1356.80;;;;;;5053860;28;19905;-76
2023/04/27 09:58:00;;;;;;;;;;;409.90;1382.40;;;;;;5053109;28;19963;-72
2023/04/27 10:00:41;;;;;;;;;;;409.80;1382.40;;;;;;5049635;28;20372;-71
2023/04/27 10:03:25;;;;;;;;;;;409.80;1382.40;;;;;;5063833;28;20332;-76
2023/04/27 10:06:09;;;;;;;;;;;409.90;1356.80;;;;;;5046841;28;20377;-72
2023/04/27 10:08:35;;;;;;;;;;;410.50;1331.20;;;;;;5046304;28;19908;-77
2023/04/27 10:11:11;;;;;;;;;;;410.30;1382.40;;;;;;5053156;28;19904;-72
2023/04/27 10:13:37;;;;;;;;;;;410.10;1356.80;;;;;;5052490;28;19909;-73
2023/04/27 10:16:23;;;;;;;;;;;409.90;1331.20;;;;;;5053131;28;19912;-72
2023/04/27 10:18:53;;;;;;;;;;;409.70;1305.60;;;;;;5053081;28;19920;-71
2023/04/27 10:21:18;;;;;;;;;;;409.90;1331.20;;;;;;5053606;28;19913;-71
2023/04/27 10:23:45;;;;;;;;;;;409.60;1331.20;;;;;;5053463;28;19927;-71
2023/04/27 10:26:11;;;;;;;;;;;409.60;1356.80;;;;;;5053621;28;19905;-75
2023/04/27 10:28:40;;;;;;;;;;;384.90;1331.20;;;;;;5053132;28;19991;-72
2023/04/27 10:31:10;;;;;;;;;;;384.90;1356.80;;;;;;5049257;28;19905;-71
2023/04/27 10:33:41;;;;;;;;;;;409.60;1382.40;;;;;;5055651;28;19905;-71
2023/04/27 10:36:12;;;;;;;;;;;409.60;1356.80;;;;;;5052785;28;19931;-70
2023/04/27 10:38:39;;;;;;;;;;;410.30;1356.80;;;;;;5053075;28;20347;-71
2023/04/27 10:41:12;;;;;;;;;;;410.20;1356.80;;;;;;5052293;28;19904;-71
2023/04/27 10:43:37;;;;;;;;;;;410.20;1331.20;;;;;;5052889;28;19916;-74
2023/04/27 10:46:10;;;;;;;;;;;435.20;1280.00;;;;;;5053083;28;19915;-71
2023/04/27 10:48:37;;;;;;;;;;;435.20;1305.60;;;;;;5056266;28;19905;-70
2023/04/27 10:51:03;;;;;;;;;;;435.20;1305.60;;;;;;5052784;28;19948;-73
2023/04/27 10:53:32;;;;;;;;;;;435.80;1254.40;;;;;;5052657;28;19970;-70
2023/04/27 10:55:58;;;;;;;;;;;435.90;1203.20;;;;;;5050654;28;19952;-71
2023/04/27 10:58:24;;;;;;;;;;;460.80;1228.80;;;;;;5052215;28;20376;-71
2023/04/27 11:00:50;;;;;;;;;;;461.20;1254.40;;;;;;5052275;28;19928;-74
2023/04/27 11:03:18;;;;;;;;;;;486.40;1203.20;;;;;;5052804;28;19905;-73
2023/04/27 11:05:44;;;;;;;;;;;461.70;1203.20;;;;;;5052344;28;20361;-71
2023/04/27 11:08:20;;;;;;;;;;;461.20;1203.20;;;;;;5053069;28;19920;-70
2023/04/27 11:10:48;;;;;;;;;;;460.90;1254.40;;;;;;5044154;28;19987;-70
2023/04/27 11:13:15;;;;;;;;;;;436.10;1203.20;;;;;;5052349;28;20269;-71
2023/04/27 11:15:47;;;;;;;;;;;435.40;1177.60;;;;;;5052525;28;19905;-72
2023/04/27 11:18:14;;;;;;;;;;;435.40;1177.60;;;;;;5048301;28;19978;-70
2023/04/27 11:20:40;;;;;;;;;;;435.80;1177.60;;;;;;5052347;28;19905;-70
2023/04/27 11:23:06;;;;;;;;;;;461.10;1177.60;;;;;;5053183;28;19913;-72
2023/04/27 11:25:32;;;;;;;;;;;436.10;1177.60;;;;;;5053410;28;19954;-70
2023/04/27 11:27:57;;;;;;;;;;;435.70;1203.20;;;;;;5052464;28;19940;-70
2023/04/27 11:30:23;;;;;;;;;;;435.40;1203.20;;;;;;5052409;28;20357;-71
2023/04/27 11:32:49;;;;;;;;;;;435.20;1228.80;;;;;;5051956;28;20404;-77
2023/04/27 11:35:15;;;;;;;;;;;435.20;1254.40;;;;;;5052443;28;20312;-69
2023/04/27 11:37:41;;;;;;;;;;;435.20;1280.00;;;;;;5052813;28;20003;-69
2023/04/27 11:40:10;;;;;;;;;;;410.40;1280.00;;;;;;5052382;28;20073;-76
2023/04/27 11:42:36;;;;;;;;;;;410.30;1331.20;;;;;;5047135;28;20007;-70
2023/04/27 11:45:06;;;;;;;;;;;410.30;1280.00;;;;;;5052072;28;20403;-69
2023/04/27 11:47:33;;;;;;;;;;;410.50;1305.60;;;;;;5048457;28;19912;-73
2023/04/27 11:49:59;;;;;;;;;;;436.10;1254.40;;;;;;5052052;28;19932;-69
2023/04/27 11:52:29;;;;;;;;;;;461.10;1228.80;;;;;;5054499;28;19905;-71
2023/04/27 11:54:57;;;;;;;;;;;461.60;1177.60;;;;;;5055648;28;19905;-70
2023/04/27 11:57:25;;;;;;;;;;;486.40;1177.60;;;;;;5055956;28;19971;-70
2023/04/27 11:59:51;;;;;;;;;;;461.50;1177.60;;;;;;5055932;28;19974;-69
2023/04/27 12:02:17;;;;;;;;;;;461.00;1177.60;;;;;;5053811;28;20364;-69
2023/04/27 12:04:42;;;;;;;;;;;461.30;1203.20;;;;;;5053142;28;19904;-69
2023/04/27 12:07:08;;;;;;;;;;;461.00;1228.80;;;;;;5055446;28;20280;-69
2023/04/27 12:09:33;;;;;;;;;;;435.90;1254.40;;;;;;5055734;28;19948;-70
2023/04/27 12:11:59;;;;;;;;;;;435.50;1254.40;;;;;;5055929;28;20349;-69
2023/04/27 12:14:24;;;;;;;;;;;435.40;1280.00;;;;;;5052986;28;20333;-69
2023/04/27 12:16:50;;;;;;;;;;;435.20;1280.00;;;;;;5046007;28;20272;-69
2023/04/27 12:19:16;;;;;;;;;;;410.50;1280.00;;;;;;5055303;28;19920;-69
2023/04/27 12:21:41;;;;;;;;;;;410.40;1280.00;;;;;;5055264;28;19908;-70
2023/04/27 12:24:07;;;;;;;;;;;410.40;1280.00;;;;;;5055505;28;19909;-69
2023/04/27 12:26:33;;;;;;;;;;;410.50;1280.00;;;;;;5061694;28;19904;-69
2023/04/27 12:28:58;;;;;;;;;;;410.50;1280.00;;;;;;5057650;28;19960;-68
2023/04/27 12:31:24;;;;;;;;;;;410.40;1254.40;;;;;;5051750;28;20352;-69
2023/04/27 12:33:50;;;;;;;;;;;410.20;1254.40;;;;;;5054976;28;19909;-69
2023/04/27 12:36:16;;;;;;;;;;;410.20;1280.00;;;;;;5054685;28;19919;-69
2023/04/27 12:38:41;;;;;;;;;;;410.00;1305.60;;;;;;5048625;28;20280;-70
2023/04/27 12:41:07;;;;;;;;;;;410.00;1305.60;;;;;;5055039;28;19920;-74
2023/04/27 12:43:35;;;;;;;;;;;410.00;1331.20;;;;;;5055196;28;19909;-69
2023/04/27 12:46:00;;;;;;;;;;;410.10;1331.20;;;;;;5055217;28;19909;-69
2023/04/27 12:48:26;;;;;;;;;;;410.40;1305.60;;;;;;5055296;28;19951;-69
2023/04/27 12:50:52;;;;;;;;;;;410.40;1254.40;;;;;;5054947;28;19919;-69
2023/04/27 12:53:17;;;;;;;;;;;410.40;1254.40;;;;;;5054711;28;19940;-68
2023/04/27 12:55:43;;;;;;;;;;;410.40;1254.40;;;;;;5054733;28;20253;-69
2023/04/27 12:58:08;;;;;;;;;;;410.40;1254.40;;;;;;5054265;28;19960;-68
2023/04/27 13:00:34;;;;;;;;;;;410.50;1228.80;;;;;;5054275;28;19923;-69
2023/04/27 13:02:59;;;;;;;;;;;435.30;1228.80;;;;;;5054256;28;19987;-68
2023/04/27 13:05:25;;;;;;;;;;;435.90;1228.80;;;;;;5054808;28;19905;-70
2023/04/27 13:07:51;;;;;;;;;;;435.90;1203.20;;;;;;5053249;28;19920;-69
2023/04/27 13:10:16;;;;;;;;;;;435.90;1177.60;;;;;;5054123;28;20373;-69
2023/04/27 13:12:42;;;;;;;;;;;460.80;1228.80;;;;;;5054508;28;20280;-69
2023/04/27 13:15:08;;;;;;;;;;;461.20;1228.80;;;;;;5053503;28;20537;-72
2023/04/27 13:17:33;;;;;;;;;;;461.40;1203.20;;;;;;5053833;28;19905;-74
2023/04/27 13:19:59;;;;;;;;;;;460.90;1177.60;;;;;;5053673;28;20326;-74
2023/04/27 13:22:25;;;;;;;;;;;436.00;1152.00;;;;;;5054439;28;19905;-75
2023/04/27 13:24:50;;;;;;;;;;;435.80;1177.60;;;;;;5053162;28;19959;-72
2023/04/27 13:27:16;;;;;;;;;;;435.70;1203.20;;;;;;5053300;28;19917;-75
2023/04/27 13:29:41;;;;;;;;;;;435.50;1177.60;;;;;;5053639;28;19995;-76
2023/04/27 13:32:07;;;;;;;;;;;435.50;1203.20;;;;;;5053612;28;20005;-74
2023/04/27 13:34:33;;;;;;;;;;;435.60;1203.20;;;;;;5051207;28;19909;-75
2023/04/27 13:36:58;;;;;;;;;;;436.10;1177.60;;;;;;5053258;28;19913;-70